createdAt,value
2023-05-06T00:01:26.833Z,101359.22
2023-05-06T00:03:55.035Z,101361.34
2023-05-06T00:06:23.300Z,101371.63
2023-05-06T00:08:51.436Z,101362.19
2023-05-06T00:11:19.472Z,101370.63
2023-05-06T00:13:47.465Z,101374.63
2023-05-06T00:16:17.037Z,101374.44
2023-05-06T00:18:45.368Z,101371.91
2023-05-06T00:21:13.600Z,101376.53
2023-05-06T00:23:41.603Z,101384.09
2023-05-06T00:26:10.572Z,101379.72
2023-05-06T00:28:38.527Z,101382.03
2023-05-06T00:31:07.064Z,101371.97
2023-05-06T00:33:36.717Z,101368.63
2023-05-06T00:36:07.222Z,101366.97
2023-05-06T00:38:35.727Z,101366.34
2023-05-06T00:41:04.398Z,101367.81
2023-05-06T00:43:32.498Z,101352.72
2023-05-06T00:46:01.095Z,101352.94
2023-05-06T00:48:29.662Z,101355.47
2023-05-06T00:50:59.035Z,101355.47
2023-05-06T00:53:27.148Z,101359.84
2023-05-06T00:55:55.651Z,101359.84
2023-05-06T00:58:49.025Z,101351.84
2023-05-06T01:01:17.562Z,101351.00
2023-05-06T01:03:45.944Z,101344.13
2023-05-06T01:06:25.080Z,101348.91
2023-05-06T01:09:02.020Z,101332.31
2023-05-06T01:11:39.743Z,101338.78
2023-05-06T01:14:17.498Z,101325.22
2023-05-06T01:16:49.296Z,101334.59
2023-05-06T01:19:35.851Z,101335.06
2023-05-06T01:22:06.738Z,101335.69
2023-05-06T01:24:40.091Z,101332.13
2023-05-06T01:27:08.548Z,101331.69
2023-05-06T01:29:38.163Z,101336.03
2023-05-06T01:32:28.292Z,101337.13
2023-05-06T01:35:04.712Z,101334.59
2023-05-06T01:37:39.869Z,101333.13
2023-05-06T01:40:10.732Z,101328.13
2023-05-06T01:42:41.111Z,101337.94
2023-05-06T01:45:11.214Z,101328.75
2023-05-06T01:47:42.007Z,101330.22
2023-05-06T01:50:10.954Z,101332.75
2023-05-06T01:52:38.955Z,101337.94
2023-05-06T01:55:09.951Z,101332.75
2023-05-06T01:57:38.133Z,101330.84
2023-05-06T02:00:07.445Z,101330.47
2023-05-06T02:02:40.280Z,101324.56
2023-05-06T02:05:09.679Z,101324.56
2023-05-06T02:07:43.462Z,101323.72
2023-05-06T02:10:13.443Z,101325.41
2023-05-06T02:12:46.183Z,101317.22
2023-05-06T02:15:14.236Z,101321.59
2023-05-06T02:17:43.399Z,101315.31
2023-05-06T02:20:11.802Z,101318.25
2023-05-06T02:22:39.774Z,101318.72
2023-05-06T02:25:09.414Z,101319.16
2023-05-06T02:27:38.925Z,101327.56
2023-05-06T02:30:08.417Z,101328.22
2023-05-06T02:32:36.486Z,101334.09
2023-05-06T02:35:04.965Z,101326.59
2023-05-06T02:37:32.970Z,101327.84
2023-05-06T02:40:02.972Z,101329.56
2023-05-06T02:42:35.954Z,101323.31
2023-05-06T02:45:06.265Z,101330.22
2023-05-06T02:47:34.369Z,101330.06
2023-05-06T02:50:02.366Z,101321.91
2023-05-06T02:52:30.521Z,101324.00
2023-05-06T02:54:58.589Z,101322.75
2023-05-06T02:57:26.859Z,101316.94
2023-05-06T02:59:54.857Z,101314.66
2023-05-06T03:02:24.493Z,101307.13
2023-05-06T03:04:52.948Z,101314.06
2023-05-06T03:07:21.284Z,101320.53
2023-05-06T03:09:49.502Z,101305.94
2023-05-06T03:12:17.507Z,101312.00
2023-05-06T03:14:45.520Z,101304.28
2023-05-06T03:17:13.612Z,101305.34
2023-05-06T03:19:43.021Z,101305.13
2023-05-06T03:22:13.097Z,101305.56
2023-05-06T03:25:10.207Z,101307.03
2023-05-06T03:27:40.549Z,101300.38
2023-05-06T03:30:16.611Z,101301.84
2023-05-06T03:32:46.365Z,101308.34
2023-05-06T03:35:19.991Z,101291.63
2023-05-06T03:37:52.799Z,101295.81
2023-05-06T03:40:22.897Z,101292.47
2023-05-06T03:42:51.767Z,101294.78
2023-05-06T03:45:21.096Z,101294.16
2023-05-06T03:47:49.608Z,101289.16
2023-05-06T03:50:20.800Z,101285.81
2023-05-06T03:52:49.868Z,101291.69
2023-05-06T03:55:18.057Z,101285.84
2023-05-06T03:57:46.062Z,101286.03
2023-05-06T04:00:15.792Z,101279.78
2023-05-06T04:02:51.265Z,101281.03
2023-05-06T04:05:26.480Z,101286.72
2023-05-06T04:07:54.542Z,101289.63
2023-05-06T04:10:22.771Z,101288.59
2023-05-06T04:12:53.466Z,101286.28
2023-05-06T04:15:29.130Z,101287.97
2023-05-06T04:17:57.205Z,101289.00
2023-05-06T04:20:26.654Z,101282.97
2023-05-06T04:22:54.692Z,101290.06
2023-05-06T04:25:22.870Z,101278.13
2023-05-06T04:27:51.810Z,101279.63
2023-05-06T04:30:20.997Z,101275.84
2023-05-06T04:32:49.722Z,101288.41
2023-05-06T04:35:18.358Z,101273.13
2023-05-06T04:37:48.960Z,101281.28
2023-05-06T04:40:25.957Z,101282.97
2023-05-06T04:42:54.091Z,101287.56
2023-05-06T04:45:26.121Z,101282.13
2023-05-06T04:47:55.521Z,101283.78
2023-05-06T04:50:23.615Z,101278.13
2023-05-06T04:52:54.475Z,101279.56
2023-05-06T04:55:22.450Z,101285.44
2023-05-06T04:57:53.675Z,101285.22
2023-05-06T05:00:22.293Z,101283.94
2023-05-06T05:02:50.398Z,101289.59
2023-05-06T05:05:19.355Z,101296.28
2023-05-06T05:07:51.066Z,101300.22
2023-05-06T05:10:20.943Z,101294.59
2023-05-06T05:12:50.428Z,101301.25
2023-05-06T05:15:18.485Z,101303.34
2023-05-06T05:17:46.936Z,101308.97
2023-05-06T05:20:15.753Z,101303.72
2023-05-06T05:22:43.742Z,101314.16
2023-05-06T05:25:12.115Z,101312.47
2023-05-06T05:27:43.151Z,101308.28
2023-05-06T05:30:11.992Z,101309.28
2023-05-06T05:32:40.938Z,101315.53
2023-05-06T05:35:10.772Z,101316.16
2023-05-06T05:37:41.295Z,101317.19
2023-05-06T05:40:11.039Z,101324.06
2023-05-06T05:42:43.157Z,101326.75
2023-05-06T05:45:21.232Z,101321.09
2023-05-06T05:47:50.462Z,101322.31
2023-05-06T05:50:19.640Z,101321.91
2023-05-06T05:52:47.676Z,101334.63
2023-05-06T05:55:16.333Z,101326.66
2023-05-06T05:57:47.772Z,101324.94
2023-05-06T06:00:17.313Z,101331.38
2023-05-06T06:02:46.083Z,101324.84
2023-05-06T06:05:17.416Z,101322.50
2023-05-06T06:07:45.534Z,101323.50
2023-05-06T06:10:15.452Z,101320.50
2023-05-06T06:12:45.170Z,101324.47
2023-05-06T06:15:19.170Z,101330.91
2023-05-06T06:17:47.905Z,101330.41
2023-05-06T06:20:16.027Z,101326.34
2023-05-06T06:22:44.092Z,101325.66
2023-05-06T06:25:12.674Z,101325.78
2023-05-06T06:27:40.835Z,101322.34
2023-05-06T06:30:10.170Z,101323.78
2023-05-06T06:32:50.339Z,101325.59
2023-05-06T06:35:19.901Z,101326.78
2023-05-06T06:37:48.345Z,101334.75
2023-05-06T06:40:16.924Z,101332.63
2023-05-06T06:42:45.979Z,101339.53
2023-05-06T06:45:34.508Z,101340.75
2023-05-06T06:48:04.100Z,101340.53
2023-05-06T06:50:32.111Z,101340.28
2023-05-06T06:53:00.123Z,101335.38
2023-05-06T06:55:28.209Z,101343.69
2023-05-06T06:57:56.255Z,101338.63
2023-05-06T07:00:24.611Z,101337.50
2023-05-06T07:02:52.636Z,101334.06
2023-05-06T07:05:22.042Z,101341.34
2023-05-06T07:07:49.997Z,101335.44
2023-05-06T07:10:17.931Z,101337.44
2023-05-06T07:12:45.915Z,101337.97
2023-05-06T07:15:14.033Z,101333.50
2023-05-06T07:17:42.082Z,101329.16
2023-05-06T07:20:11.300Z,101341.19
2023-05-06T07:22:41.916Z,101334.41
2023-05-06T07:25:10.557Z,101334.78
2023-05-06T07:27:38.910Z,101339.97
2023-05-06T07:30:08.154Z,101335.50
2023-05-06T07:32:36.278Z,101326.94
2023-05-06T07:35:05.745Z,101328.03
2023-05-06T07:38:51.965Z,101331.94
2023-05-06T07:41:21.387Z,101328.63
2023-05-06T07:43:49.414Z,101334.69
2023-05-06T07:46:17.665Z,101331.69
2023-05-06T07:48:45.722Z,101338.97
2023-05-06T07:51:13.777Z,101335.00
2023-05-06T07:53:41.820Z,101332.28
2023-05-06T07:56:09.845Z,101331.31
2023-05-06T07:58:39.231Z,101325.69
2023-05-06T08:01:07.291Z,101338.06
2023-05-06T08:03:36.095Z,101337.22
2023-05-06T08:06:04.472Z,101330.09
2023-05-06T08:08:32.431Z,101336.00
2023-05-06T08:11:00.946Z,101340.38
2023-05-06T08:13:29.096Z,101338.25
2023-05-06T08:15:58.583Z,101338.94
2023-05-06T08:18:26.700Z,101338.09
2023-05-06T08:20:54.892Z,101329.16
2023-05-06T08:23:22.963Z,101337.25
2023-05-06T08:25:51.002Z,101334.22
2023-05-06T08:28:19.090Z,101333.06
2023-05-06T08:30:48.543Z,101332.88
2023-05-06T08:33:17.966Z,101337.97
2023-05-06T08:35:46.042Z,101339.50
2023-05-06T08:38:14.118Z,101343.06
2023-05-06T08:40:44.828Z,101338.69
2023-05-06T08:43:16.106Z,101339.59
2023-05-06T08:45:44.211Z,101328.41
2023-05-06T08:48:12.621Z,101345.16
2023-05-06T08:50:44.756Z,101332.44
2023-05-06T08:53:13.843Z,101334.34
2023-05-06T08:55:42.660Z,101339.50
2023-05-06T08:58:12.749Z,101341.38
2023-05-06T09:00:41.001Z,101340.09
2023-05-06T09:03:09.171Z,101336.06
2023-05-06T09:05:37.347Z,101337.13
2023-05-06T09:08:06.940Z,101339.97
2023-05-06T09:10:43.946Z,101343.53
2023-05-06T09:13:13.262Z,101339.28
2023-05-06T09:15:42.080Z,101335.56
2023-05-06T09:18:10.443Z,101334.88
2023-05-06T09:20:42.036Z,101334.19
2023-05-06T09:23:13.181Z,101340.47
2023-05-06T09:25:41.217Z,101332.00
2023-05-06T09:28:11.470Z,101331.78
2023-05-06T09:30:40.502Z,101330.84
2023-05-06T09:33:08.689Z,101328.81
2023-05-06T09:35:39.137Z,101344.06
2023-05-06T09:38:08.434Z,101337.63
2023-05-06T09:40:38.948Z,101337.88
2023-05-06T09:43:08.889Z,101338.34
2023-05-06T09:45:37.237Z,101333.72
2023-05-06T09:48:07.184Z,101338.34
2023-05-06T09:50:35.391Z,101337.28
2023-05-06T09:53:06.068Z,101333.97
2023-05-06T09:55:34.742Z,101341.34
2023-05-06T09:58:05.330Z,101334.09
2023-05-06T10:00:33.770Z,101340.25
2023-05-06T10:03:02.015Z,101328.00
2023-05-06T10:05:31.540Z,101330.97
2023-05-06T10:08:00.615Z,101334.31
2023-05-06T10:10:29.567Z,101334.66
2023-05-06T10:12:58.030Z,101341.91
2023-05-06T10:15:27.826Z,101337.88
2023-05-06T10:17:57.060Z,101334.91
2023-05-06T10:20:26.543Z,101335.75
2023-05-06T10:23:04.755Z,101337.31
2023-05-06T10:25:37.266Z,101337.06
2023-05-06T10:28:09.211Z,101333.22
2023-05-06T10:30:45.712Z,101337.66
2023-05-06T10:33:16.031Z,101334.06
2023-05-06T10:35:51.104Z,101328.34
2023-05-06T10:38:29.090Z,101334.78
2023-05-06T10:40:59.966Z,101322.44
2023-05-06T10:43:29.719Z,101322.16
2023-05-06T10:46:22.124Z,101324.91
2023-05-06T10:49:18.692Z,101324.44
2023-05-06T10:52:15.209Z,101319.78
2023-05-06T10:54:50.855Z,101319.78
2023-05-06T10:57:21.079Z,101323.38
2023-05-06T10:59:50.139Z,101316.34
2023-05-06T11:02:21.460Z,101319.78
2023-05-06T11:04:53.829Z,101317.19
2023-05-06T11:07:24.737Z,101315.88
2023-05-06T11:09:56.289Z,101315.28
2023-05-06T11:12:48.994Z,101306.47
2023-05-06T11:15:22.246Z,101305.78
2023-05-06T11:17:51.798Z,101302.78
2023-05-06T11:20:21.500Z,101306.69
2023-05-06T11:22:49.601Z,101307.63
2023-05-06T11:25:41.698Z,101293.38
2023-05-06T11:28:11.436Z,101295.75
2023-05-06T11:30:42.684Z,101299.44
2023-05-06T11:33:19.522Z,101300.66
2023-05-06T11:35:47.665Z,101302.00
2023-05-06T11:38:15.681Z,101312.22
2023-05-06T11:40:43.742Z,101303.28
2023-05-06T11:43:12.968Z,101308.75
2023-05-06T11:45:42.191Z,101303.75
2023-05-06T11:48:13.979Z,101298.28
2023-05-06T11:50:45.758Z,101305.41
2023-05-06T11:53:16.006Z,101309.03
2023-05-06T11:55:44.722Z,101302.94
2023-05-06T11:59:02.693Z,101306.63
2023-05-06T12:01:30.828Z,101291.28
2023-05-06T12:04:00.368Z,101303.03
2023-05-06T12:06:35.866Z,101308.97
2023-05-06T12:09:06.361Z,101297.63
2023-05-06T12:11:35.882Z,101297.63
2023-05-06T12:14:06.681Z,101285.28
2023-05-06T12:16:59.501Z,101294.56
2023-05-06T12:19:30.184Z,101286.97
2023-05-06T12:22:18.029Z,101292.31
2023-05-06T12:24:46.532Z,101285.69
2023-05-06T12:27:14.807Z,101285.31
2023-05-06T12:29:53.910Z,101283.28
2023-05-06T12:32:21.965Z,101285.81
2023-05-06T12:34:51.428Z,101284.59
2023-05-06T12:37:26.516Z,101280.09
2023-05-06T12:39:57.718Z,101292.34
2023-05-06T12:42:26.766Z,101282.47
2023-05-06T12:44:55.021Z,101286.03
2023-05-06T12:47:24.910Z,101288.06
2023-05-06T12:49:55.821Z,101283.41
2023-05-06T12:52:24.581Z,101295.78
2023-05-06T12:54:53.123Z,101297.22
2023-05-06T12:57:21.469Z,101295.06
2023-05-06T12:59:50.703Z,101302.81
2023-05-06T13:02:18.941Z,101309.69
2023-05-06T13:04:47.203Z,101295.63
2023-05-06T13:07:16.666Z,101297.56
2023-05-06T13:09:45.026Z,101299.00
2023-05-06T13:12:13.099Z,101298.75
2023-05-06T13:14:41.140Z,101285.78
2023-05-06T13:17:09.400Z,101300.41
2023-05-06T13:19:37.777Z,101291.84
2023-05-06T13:22:05.775Z,101293.28
2023-05-06T13:24:38.203Z,101296.84
2023-05-06T13:27:06.361Z,101295.66
2023-05-06T13:29:40.712Z,101300.66
2023-05-06T13:32:09.343Z,101296.97
2023-05-06T13:34:37.555Z,101293.06
2023-05-06T13:37:05.816Z,101288.16
2023-05-06T13:39:35.235Z,101288.28
2023-05-06T13:42:06.655Z,101291.97
2023-05-06T13:44:36.434Z,101294.84
2023-05-06T13:47:04.841Z,101283.31
2023-05-06T13:49:35.716Z,101286.16
2023-05-06T13:52:05.211Z,101282.72
2023-05-06T13:54:36.857Z,101287.44
2023-05-06T13:57:04.993Z,101282.34
2023-05-06T13:59:33.105Z,101284.84
2023-05-06T14:02:01.702Z,101279.38
2023-05-06T14:04:29.857Z,101284.50
2023-05-06T14:06:57.879Z,101272.75
2023-05-06T14:09:26.021Z,101275.34
2023-05-06T14:11:55.473Z,101273.56
2023-05-06T14:14:23.460Z,101282.00
2023-05-06T14:16:53.425Z,101272.25
2023-05-06T14:19:21.502Z,101272.53
2023-05-06T14:21:50.947Z,101275.50
2023-05-06T14:24:21.932Z,101270.94
2023-05-06T14:26:50.177Z,101269.91
2023-05-06T14:29:19.835Z,101268.84
2023-05-06T14:31:50.204Z,101266.81
2023-05-06T14:34:21.422Z,101261.00
2023-05-06T14:36:49.710Z,101255.06
2023-05-06T14:39:17.845Z,101263.59
2023-05-06T14:41:46.116Z,101252.47
2023-05-06T14:44:14.365Z,101250.06
2023-05-06T14:46:44.079Z,101250.63
2023-05-06T14:49:12.139Z,101246.72
2023-05-06T14:51:43.831Z,101238.63
2023-05-06T14:54:12.296Z,101247.56
2023-05-06T14:56:41.368Z,101246.13
2023-05-06T14:59:09.582Z,101237.47
2023-05-06T15:01:39.169Z,101243.28
2023-05-06T15:04:11.278Z,101239.59
2023-05-06T15:06:39.542Z,101234.25
2023-05-06T15:09:08.030Z,101238.19
2023-05-06T15:11:36.163Z,101232.47
2023-05-06T15:14:04.229Z,101230.81
2023-05-06T15:16:36.786Z,101234.16
2023-05-06T15:19:05.466Z,101237.13
2023-05-06T15:21:35.261Z,101235.59
2023-05-06T15:24:03.365Z,101230.13
2023-05-06T15:26:31.482Z,101236.75
2023-05-06T15:28:59.496Z,101228.31
2023-05-06T15:31:27.573Z,101231.38
2023-05-06T15:33:57.684Z,101228.69
2023-05-06T15:36:27.654Z,101230.13
2023-05-06T15:39:01.575Z,101227.63
2023-05-06T15:41:31.857Z,101236.06
2023-05-06T15:44:01.132Z,101229.41
2023-05-06T15:46:29.753Z,101223.94
2023-05-06T15:49:21.025Z,101229.66
2023-05-06T15:51:46.878Z,101230.69
2023-05-06T15:54:18.386Z,101226.66
2023-05-06T15:56:47.570Z,101227.16
2023-05-06T15:59:16.237Z,101234.38
2023-05-06T16:05:09.701Z,101236.28
2023-05-06T16:07:37.785Z,101222.97
2023-05-06T16:10:08.987Z,101233.00
2023-05-06T16:12:37.402Z,101224.06
2023-05-06T16:15:06.112Z,101230.13
2023-05-06T16:17:37.702Z,101233.34
2023-05-06T16:20:09.108Z,101226.78
2023-05-06T16:22:40.037Z,101229.19
2023-05-06T16:25:09.892Z,101222.63
2023-05-06T16:27:38.063Z,101221.69
2023-05-06T16:31:20.945Z,101219.19
2023-05-06T16:33:49.289Z,101226.31
2023-05-06T16:36:17.502Z,101220.13
2023-05-06T16:38:48.023Z,101230.13
2023-05-06T16:41:17.494Z,101226.78
2023-05-06T16:43:45.572Z,101222.41
2023-05-06T16:46:13.722Z,101221.34
2023-05-06T16:49:40.275Z,101216.56
2023-05-06T16:52:08.293Z,101221.34
2023-05-06T16:54:36.368Z,101216.34
2023-05-06T16:57:05.817Z,101216.81
2023-05-06T17:00:03.266Z,101215.75
2023-05-06T17:02:34.163Z,101214.03
2023-05-06T17:05:02.169Z,101205.16
2023-05-06T17:07:30.226Z,101214.44
2023-05-06T17:09:58.214Z,101207.28
2023-05-06T17:12:27.670Z,101207.28
2023-05-06T17:14:56.013Z,101207.19
2023-05-06T17:17:28.572Z,101205.88
2023-05-06T17:19:58.354Z,101203.63
2023-05-06T17:22:26.692Z,101209.09
2023-05-06T17:24:54.835Z,101195.53
2023-05-06T17:27:23.248Z,101195.19
2023-05-06T17:29:55.486Z,101193.66
2023-05-06T17:32:26.185Z,101195.44
2023-05-06T17:34:54.710Z,101194.44
2023-05-06T17:37:48.536Z,101195.44
2023-05-06T17:40:16.992Z,101193.28
2023-05-06T17:42:45.602Z,101193.88
2023-05-06T17:45:15.845Z,101197.44
2023-05-06T17:47:46.579Z,101199.69
2023-05-06T17:50:14.944Z,101193.88
2023-05-06T17:52:43.074Z,101198.41
2023-05-06T17:55:16.366Z,101199.00
2023-05-06T17:57:52.582Z,101194.38
2023-05-06T18:00:22.704Z,101199.00
2023-05-06T18:02:50.891Z,101191.28
2023-05-06T18:05:19.133Z,101193.53
2023-05-06T18:07:47.998Z,101191.88
2023-05-06T18:10:16.052Z,101190.09
2023-05-06T18:12:45.414Z,101198.19
2023-05-06T18:15:13.586Z,101192.44
2023-05-06T18:17:42.974Z,101190.19
2023-05-06T18:20:12.137Z,101190.19
2023-05-06T18:22:40.302Z,101190.09
2023-05-06T18:25:09.372Z,101183.22
2023-05-06T18:27:37.589Z,101196.97
2023-05-06T18:30:06.714Z,101191.88
2023-05-06T18:32:35.042Z,101191.97
2023-05-06T18:35:04.453Z,101194.50
2023-05-06T18:37:33.024Z,101193.41
2023-05-06T18:40:01.140Z,101197.56
2023-05-06T18:42:29.259Z,101199.34
2023-05-06T18:44:58.115Z,101199.81
2023-05-06T18:47:26.505Z,101206.25
2023-05-06T18:49:54.825Z,101196.13
2023-05-06T18:52:24.288Z,101194.38
2023-05-06T18:54:52.404Z,101197.78
2023-05-06T18:57:20.606Z,101194.59
2023-05-06T18:59:48.733Z,101200.91
2023-05-06T19:02:17.083Z,101203.84
2023-05-06T19:04:45.345Z,101210.28
2023-05-06T19:07:16.059Z,101210.50
2023-05-06T19:09:45.697Z,101211.56
2023-05-06T19:12:15.155Z,101210.25
2023-05-06T19:14:43.513Z,101213.47
2023-05-06T19:17:16.004Z,101222.38
2023-05-06T19:19:55.479Z,101210.63
2023-05-06T19:22:26.915Z,101213.56
2023-05-06T19:24:56.511Z,101206.81
2023-05-06T19:27:25.124Z,101196.13
2023-05-06T19:29:53.474Z,101204.56
2023-05-06T19:32:24.326Z,101205.16
2023-05-06T19:34:52.390Z,101200.78
2023-05-06T19:37:20.572Z,101207.75
2023-05-06T19:39:49.619Z,101208.38
2023-05-06T19:42:19.174Z,101211.09
2023-05-06T19:44:48.300Z,101205.63
2023-05-06T19:47:16.600Z,101201.13
2023-05-06T19:49:44.652Z,101207.16
2023-05-06T19:52:13.286Z,101216.78
2023-05-06T19:54:41.460Z,101213.69
2023-05-06T19:57:09.487Z,101215.47
2023-05-06T19:59:39.467Z,101220.59
2023-05-06T20:02:10.357Z,101222.16
2023-05-06T20:04:38.524Z,101220.72
2023-05-06T20:07:06.589Z,101230.81
2023-05-06T20:09:34.729Z,101231.50
2023-05-06T20:12:03.297Z,101238.88
2023-05-06T20:14:31.796Z,101237.56
2023-05-06T20:17:02.552Z,101229.84
2023-05-06T20:19:31.275Z,101235.75
2023-05-06T20:22:02.218Z,101227.47
2023-05-06T20:24:30.356Z,101224.97
2023-05-06T20:26:59.190Z,101237.66
2023-05-06T20:29:27.384Z,101231.16
2023-05-06T20:31:58.780Z,101232.69
2023-05-06T20:34:28.375Z,101225.81
2023-05-06T20:36:56.457Z,101215.47
2023-05-06T20:39:24.796Z,101223.09
2023-05-06T20:41:52.909Z,101225.09
2023-05-06T20:44:23.862Z,101238.28
2023-05-06T20:46:51.674Z,101231.63
2023-05-06T20:49:20.135Z,101228.91
2023-05-06T20:51:49.518Z,101237.63
2023-05-06T20:54:18.065Z,101250.81
2023-05-06T20:56:46.118Z,101248.91
2023-05-06T20:59:30.982Z,101253.34
2023-05-06T21:01:59.038Z,101257.25
2023-05-06T21:04:27.244Z,101261.88
2023-05-06T21:06:57.985Z,101258.22
2023-05-06T21:09:27.898Z,101265.34
2023-05-06T21:11:57.184Z,101271.03
2023-05-06T21:14:27.359Z,101268.78
2023-05-06T21:16:58.039Z,101276.16
2023-05-06T21:19:26.196Z,101273.78
2023-05-06T21:21:54.340Z,101276.72
2023-05-06T21:24:23.689Z,101277.47
2023-05-06T21:26:52.895Z,101270.97
2023-05-06T21:29:21.568Z,101272.63
2023-05-06T21:31:49.532Z,101280.56
2023-05-06T21:34:17.493Z,101283.75
2023-05-06T21:36:45.445Z,101272.47
2023-05-06T21:39:16.013Z,101271.66
2023-05-06T21:41:45.620Z,101271.53
2023-05-06T21:44:13.600Z,101273.66
2023-05-06T21:46:42.427Z,101279.13
2023-05-06T21:49:10.501Z,101277.25
2023-05-06T21:51:38.919Z,101282.72
2023-05-06T21:54:07.010Z,101280.88
2023-05-06T21:56:34.938Z,101281.63
2023-05-06T21:59:04.950Z,101289.22
2023-05-06T22:01:34.107Z,101283.28
2023-05-06T22:04:02.208Z,101287.56
2023-05-06T22:06:30.973Z,101285.16
2023-05-06T22:08:59.099Z,101286.59
2023-05-06T22:11:27.089Z,101292.28
2023-05-06T22:13:55.276Z,101292.28
2023-05-06T22:16:24.608Z,101283.63
2023-05-06T22:18:53.094Z,101289.81
2023-05-06T22:21:21.126Z,101283.25
2023-05-06T22:23:55.282Z,101283.19
2023-05-06T22:26:24.277Z,101294.78
2023-05-06T22:28:52.317Z,101293.34
2023-05-06T22:31:22.088Z,101292.53
2023-05-06T22:33:54.500Z,101298.22
2023-05-06T22:36:29.327Z,101302.91
2023-05-06T22:38:57.519Z,101301.88
2023-05-06T22:41:25.971Z,101296.63
2023-05-06T22:43:53.895Z,101303.38
2023-05-06T22:46:22.087Z,101299.97
2023-05-06T22:48:51.704Z,101306.38
2023-05-06T22:51:21.086Z,101308.38
2023-05-06T22:53:51.827Z,101310.22
2023-05-06T22:56:20.135Z,101306.41
2023-05-06T22:58:48.090Z,101305.78
2023-05-06T23:01:16.655Z,101311.50
2023-05-06T23:03:44.818Z,101312.13
2023-05-06T23:06:14.193Z,101310.88
2023-05-06T23:08:42.161Z,101306.72
2023-05-06T23:11:10.216Z,101311.09
2023-05-06T23:13:38.166Z,101313.75
2023-05-06T23:16:07.768Z,101317.78
2023-05-06T23:18:35.896Z,101312.19
2023-05-06T23:21:03.971Z,101308.38
2023-05-06T23:23:33.548Z,101311.81
2023-05-06T23:26:01.486Z,101309.00
2023-05-06T23:28:29.522Z,101309.91
2023-05-06T23:30:57.719Z,101312.66
2023-05-06T23:33:25.825Z,101311.44
2023-05-06T23:35:53.938Z,101317.34
2023-05-06T23:38:21.978Z,101317.81
2023-05-06T23:40:51.700Z,101320.78
2023-05-06T23:43:19.670Z,101323.91
2023-05-06T23:45:47.658Z,101319.72
2023-05-06T23:48:15.710Z,101329.56
2023-05-06T23:50:43.646Z,101322.81
2023-05-06T23:53:11.857Z,101326.00
2023-05-06T23:55:42.625Z,101323.06
2023-05-06T23:58:11.996Z,101322.44
